createdAt,value
2023-03-05T00:02:30.271Z,100054.35
2023-03-05T00:05:00.680Z,100053.82
2023-03-05T00:07:31.201Z,100060.49
2023-03-05T00:10:04.113Z,100060.34
2023-03-05T00:12:34.589Z,100057.36
2023-03-05T00:15:05.727Z,100054.58
2023-03-05T00:17:36.371Z,100053.15
2023-03-05T00:20:08.812Z,100050.16
2023-03-05T00:22:38.034Z,100042.69
2023-03-05T00:25:10.576Z,100040.20
2023-03-05T00:27:41.033Z,100035.23
2023-03-05T00:30:14.429Z,100030.25
2023-03-05T00:32:44.857Z,100032.70
2023-03-05T00:35:15.671Z,100028.34
2023-03-05T00:37:46.125Z,100024.55
2023-03-05T00:40:17.066Z,100020.95
2023-03-05T00:42:47.649Z,100016.59
2023-03-05T00:45:18.300Z,100011.14
2023-03-05T00:47:48.772Z,100009.30
2023-03-05T00:50:19.146Z,100019.47
2023-03-05T00:52:49.593Z,100017.59
2023-03-05T00:55:20.338Z,100010.67
2023-03-05T00:57:50.843Z,100004.55
2023-03-05T01:00:22.631Z,100004.52
2023-03-05T01:02:53.121Z,100004.28
2023-03-05T01:05:23.679Z,100002.52
2023-03-05T01:07:56.147Z,99997.98
2023-03-05T01:10:27.732Z,99997.83
2023-03-05T01:12:58.362Z,99996.05
2023-03-05T01:15:29.073Z,99987.20
2023-03-05T01:17:59.546Z,99986.77
2023-03-05T01:20:30.661Z,99981.77
2023-03-05T01:23:01.932Z,99985.86
2023-03-05T01:25:32.925Z,99982.90
2023-03-05T01:28:03.579Z,99975.71
2023-03-05T01:30:34.495Z,99970.05
2023-03-05T01:33:05.371Z,99967.42
2023-03-05T01:35:35.895Z,99963.81
2023-03-05T01:38:07.004Z,99963.11
2023-03-05T01:40:37.442Z,99962.97
2023-03-05T01:43:24.314Z,99961.00
2023-03-05T01:46:29.779Z,99961.32
2023-03-05T01:49:15.539Z,99959.48
2023-03-05T01:51:54.011Z,99954.29
2023-03-05T01:54:29.233Z,99949.96
2023-03-05T01:57:03.270Z,99947.45
2023-03-05T01:59:34.176Z,99948.66
2023-03-05T02:02:06.062Z,99947.99
2023-03-05T02:04:42.088Z,99949.13
2023-03-05T02:07:13.711Z,99951.16
2023-03-05T02:09:44.703Z,99949.45
2023-03-05T02:12:16.348Z,99951.98
2023-03-05T02:14:49.985Z,99949.96
2023-03-05T02:17:20.585Z,99953.25
2023-03-05T02:19:55.700Z,99951.91
2023-03-05T02:22:26.784Z,99947.50
2023-03-05T02:24:57.299Z,99948.77
2023-03-05T02:27:35.635Z,99945.70
2023-03-05T02:30:07.644Z,99941.79
2023-03-05T02:32:38.225Z,99940.13
2023-03-05T02:35:10.703Z,99939.13
2023-03-05T02:37:41.507Z,99933.20
2023-03-05T02:40:14.844Z,99936.82
2023-03-05T02:42:46.784Z,99934.83
2023-03-05T02:45:18.625Z,99934.35
2023-03-05T02:47:49.164Z,99936.06
2023-03-05T02:50:20.025Z,99931.74
2023-03-05T02:52:50.641Z,99927.01
2023-03-05T02:55:22.080Z,99920.76
2023-03-05T02:57:52.568Z,99916.63
2023-03-05T03:00:24.355Z,99920.66
2023-03-05T03:02:55.114Z,99924.04
2023-03-05T03:05:26.001Z,99919.83
2023-03-05T03:07:56.424Z,99923.84
2023-03-05T03:10:26.998Z,99917.63
2023-03-05T03:12:57.656Z,99914.20
2023-03-05T03:15:28.383Z,99910.27
2023-03-05T03:17:58.824Z,99902.87
2023-03-05T03:20:29.267Z,99899.63
2023-03-05T03:22:59.872Z,99891.05
2023-03-05T03:25:31.140Z,99890.08
2023-03-05T03:28:01.614Z,99888.28
2023-03-05T03:30:32.458Z,99884.46
2023-03-05T03:33:03.422Z,99881.31
2023-03-05T03:35:33.862Z,99881.52
2023-03-05T03:38:04.334Z,99871.40
2023-03-05T03:40:35.958Z,99873.61
2023-03-05T03:43:06.407Z,99865.13
2023-03-05T03:45:36.876Z,99860.95
2023-03-05T03:48:07.618Z,99859.71
2023-03-05T03:50:41.065Z,99855.20
2023-03-05T03:53:14.228Z,99855.08
2023-03-05T03:55:46.519Z,99848.70
2023-03-05T03:58:17.004Z,99847.74
2023-03-05T04:00:47.478Z,99843.89
2023-03-05T04:03:17.895Z,99841.61
2023-03-05T04:05:48.425Z,99840.41
2023-03-05T04:08:18.857Z,99835.44
2023-03-05T04:10:49.387Z,99834.88
2023-03-05T04:13:19.887Z,99832.84
2023-03-05T04:15:50.510Z,99829.35
2023-03-05T04:18:21.077Z,99824.64
2023-03-05T04:20:51.560Z,99821.62
2023-03-05T04:23:21.987Z,99818.08
2023-03-05T04:25:52.547Z,99811.43
2023-03-05T04:28:23.024Z,99810.77
2023-03-05T04:30:53.948Z,99805.36
2023-03-05T04:33:24.428Z,99801.09
2023-03-05T04:35:55.290Z,99800.77
2023-03-05T04:38:25.762Z,99798.79
2023-03-05T04:40:56.177Z,99795.86
2023-03-05T04:43:26.748Z,99794.17
2023-03-05T04:45:57.550Z,99789.65
2023-03-05T04:48:28.072Z,99788.30
2023-03-05T04:50:58.935Z,99784.44
2023-03-05T04:53:29.372Z,99782.58
2023-03-05T04:56:01.606Z,99780.10
2023-03-05T04:58:32.390Z,99778.04
2023-03-05T05:01:05.509Z,99774.56
2023-03-05T05:03:36.410Z,99774.23
2023-03-05T05:06:07.636Z,99765.77
2023-03-05T05:08:38.308Z,99769.48
2023-03-05T05:11:14.001Z,99765.52
2023-03-05T05:13:44.577Z,99767.30
2023-03-05T05:16:15.668Z,99764.96
2023-03-05T05:18:46.349Z,99768.39
2023-03-05T05:21:18.597Z,99763.91
2023-03-05T05:23:49.113Z,99765.02
2023-03-05T05:26:19.662Z,99766.95
2023-03-05T05:28:50.553Z,99764.66
2023-03-05T05:31:21.064Z,99764.92
2023-03-05T05:33:51.654Z,99764.73
2023-03-05T05:36:22.852Z,99762.38
2023-03-05T05:38:53.306Z,99761.02
2023-03-05T05:41:23.772Z,99758.64
2023-03-05T05:43:54.277Z,99758.79
2023-03-05T05:46:25.840Z,99754.40
2023-03-05T05:48:56.405Z,99756.41
2023-03-05T05:51:27.135Z,99750.80
2023-03-05T05:53:57.626Z,99750.58
2023-03-05T05:56:28.050Z,99751.38
2023-03-05T05:58:58.501Z,99756.44
2023-03-05T06:01:31.939Z,99756.17
2023-03-05T06:04:02.845Z,99755.13
2023-03-05T06:06:35.100Z,99757.13
2023-03-05T06:09:06.524Z,99759.08
2023-03-05T06:11:38.116Z,99753.04
2023-03-05T06:14:09.069Z,99750.27
2023-03-05T06:16:39.921Z,99751.46
2023-03-05T06:19:12.508Z,99751.14
2023-03-05T06:21:43.110Z,99746.13
2023-03-05T06:24:14.075Z,99745.49
2023-03-05T06:26:46.738Z,99745.29
2023-03-05T06:29:17.355Z,99736.54
2023-03-05T06:31:47.822Z,99735.90
2023-03-05T06:34:18.289Z,99739.14
2023-03-05T06:36:48.771Z,99732.36
2023-03-05T06:39:19.252Z,99738.73
2023-03-05T06:41:53.185Z,99734.33
2023-03-05T06:44:23.617Z,99742.23
2023-03-05T06:51:13.875Z,99736.23
2023-03-05T06:58:03.642Z,99737.92
2023-03-05T07:00:34.065Z,99736.20
2023-03-05T07:03:05.126Z,99736.28
2023-03-05T07:05:39.015Z,99737.09
2023-03-05T07:08:09.665Z,99736.73
2023-03-05T07:10:42.825Z,99735.55
2023-03-05T07:13:13.871Z,99735.85
2023-03-05T07:15:44.422Z,99733.09
2023-03-05T07:18:14.944Z,99733.33
2023-03-05T07:20:45.410Z,99732.02
2023-03-05T07:23:15.931Z,99732.60
2023-03-05T07:25:46.402Z,99727.84
2023-03-05T07:28:16.909Z,99729.77
2023-03-05T07:30:55.631Z,99727.02
2023-03-05T07:33:24.993Z,99727.46
2023-03-05T07:35:56.091Z,99723.46
2023-03-05T07:38:26.663Z,99724.67
2023-03-05T07:40:57.193Z,99722.48
2023-03-05T07:43:27.620Z,99726.52
2023-03-05T07:45:58.152Z,99727.70
2023-03-05T07:48:28.713Z,99724.58
2023-03-05T07:51:04.933Z,99719.64
2023-03-05T07:53:35.672Z,99717.81
2023-03-05T07:56:07.213Z,99712.46
2023-03-05T07:58:37.938Z,99712.36
2023-03-05T08:01:14.932Z,99710.61
2023-03-05T08:03:46.075Z,99711.22
2023-03-05T08:06:17.135Z,99707.05
2023-03-05T08:08:47.558Z,99714.10
2023-03-05T08:11:18.491Z,99706.05
2023-03-05T08:13:49.341Z,99712.21
2023-03-05T08:16:21.935Z,99714.86
2023-03-05T08:18:55.118Z,99719.56
2023-03-05T08:21:29.493Z,99723.98
2023-03-05T08:24:00.872Z,99724.67
2023-03-05T08:26:33.149Z,99729.64
2023-03-05T08:29:03.632Z,99727.17
2023-03-05T08:31:35.005Z,99736.03
2023-03-05T08:34:06.074Z,99735.75
2023-03-05T08:36:36.555Z,99729.02
2023-03-05T08:39:08.670Z,99734.06
2023-03-05T08:41:39.170Z,99726.07
2023-03-05T08:44:09.709Z,99733.08
2023-03-05T08:46:41.712Z,99725.40
2023-03-05T08:49:12.504Z,99729.94
2023-03-05T08:51:42.953Z,99731.52
2023-03-05T08:54:13.371Z,99723.90
2023-03-05T08:56:43.787Z,99720.33
2023-03-05T08:59:14.588Z,99722.10
2023-03-05T09:01:45.062Z,99721.84
2023-03-05T09:04:15.899Z,99717.19
2023-03-05T09:06:46.432Z,99719.38
2023-03-05T09:10:11.529Z,99714.90
2023-03-05T09:12:42.322Z,99719.16
2023-03-05T09:15:13.845Z,99713.75
2023-03-05T09:17:44.297Z,99713.89
2023-03-05T09:20:16.450Z,99725.13
2023-03-05T09:22:46.896Z,99730.17
2023-03-05T09:25:17.463Z,99722.52
2023-03-05T09:27:47.976Z,99717.77
2023-03-05T09:30:19.589Z,99715.95
2023-03-05T09:32:51.140Z,99717.95
2023-03-05T09:35:21.904Z,99719.98
2023-03-05T09:37:52.715Z,99716.77
2023-03-05T09:40:26.600Z,99706.80
2023-03-05T09:43:10.245Z,99713.92
2023-03-05T09:45:45.804Z,99707.52
2023-03-05T09:48:21.591Z,99710.06
2023-03-05T09:51:00.305Z,99712.52
2023-03-05T09:53:40.011Z,99709.44
2023-03-05T09:56:16.700Z,99706.67
2023-03-05T09:58:55.999Z,99695.63
2023-03-05T10:01:32.094Z,99699.43
2023-03-05T10:04:07.183Z,99697.73
2023-03-05T10:06:42.564Z,99693.92
2023-03-05T10:09:23.471Z,99687.45
2023-03-05T10:11:58.264Z,99685.71
2023-03-05T10:14:31.773Z,99681.63
2023-03-05T10:17:40.844Z,99679.88
2023-03-05T10:20:28.326Z,99673.67
2023-03-05T10:23:34.644Z,99668.88
2023-03-05T10:26:21.499Z,99667.90
2023-03-05T10:29:03.692Z,99667.04
2023-03-05T10:31:47.382Z,99659.51
2023-03-05T10:34:52.081Z,99654.09
2023-03-05T10:37:58.142Z,99650.38
2023-03-05T10:40:36.184Z,99650.00
2023-03-05T10:43:15.303Z,99647.05
2023-03-05T10:45:48.704Z,99646.10
2023-03-05T10:48:29.709Z,99639.79
2023-03-05T10:51:05.427Z,99639.40
2023-03-05T10:53:40.759Z,99641.61
2023-03-05T10:56:14.018Z,99644.10
2023-03-05T10:58:44.506Z,99641.20
2023-03-05T11:01:24.762Z,99641.77
2023-03-05T11:03:58.930Z,99642.64
2023-03-05T11:10:42.345Z,99640.02
2023-03-05T11:13:28.399Z,99635.73
2023-03-05T11:20:36.258Z,99628.38
2023-03-05T11:23:14.520Z,99623.59
2023-03-05T11:26:01.035Z,99623.93
2023-03-05T11:28:34.548Z,99620.01
2023-03-05T11:31:09.462Z,99620.96
2023-03-05T11:33:40.511Z,99617.48
2023-03-05T11:36:26.191Z,99612.99
2023-03-05T11:38:59.821Z,99602.61
2023-03-05T11:41:35.561Z,99601.23
2023-03-05T11:44:13.484Z,99598.64
2023-03-05T11:46:47.983Z,99600.73
2023-03-05T11:49:22.901Z,99594.25
2023-03-05T11:52:01.660Z,99591.09
2023-03-05T11:54:34.738Z,99582.70
2023-03-05T11:57:08.327Z,99583.58
2023-03-05T11:59:40.786Z,99572.91
2023-03-05T12:02:19.444Z,99574.44
2023-03-05T12:04:51.798Z,99570.55
2023-03-05T12:07:28.581Z,99564.98
2023-03-05T12:09:58.960Z,99568.79
2023-03-05T12:12:42.190Z,99577.73
2023-03-05T12:15:30.436Z,99572.77
2023-03-05T12:18:12.001Z,99562.79
2023-03-05T12:20:49.702Z,99560.88
2023-03-05T12:23:22.482Z,99553.32
2023-03-05T12:25:54.421Z,99554.27
2023-03-05T12:28:54.535Z,99545.04
2023-03-05T12:31:39.448Z,99546.40
2023-03-05T12:34:48.297Z,99542.19
2023-03-05T12:37:57.375Z,99538.17
2023-03-05T12:40:29.533Z,99535.63
2023-03-05T12:43:02.123Z,99535.41
2023-03-05T12:45:40.768Z,99538.75
2023-03-05T12:48:26.958Z,99545.11
2023-03-05T12:51:01.726Z,99541.30
2023-03-05T12:53:32.201Z,99534.05
2023-03-05T12:56:13.983Z,99536.98
2023-03-05T12:58:48.179Z,99540.40
2023-03-05T13:01:33.083Z,99535.61
2023-03-05T13:04:10.863Z,99538.60
2023-03-05T13:06:41.999Z,99535.29
2023-03-05T13:09:19.704Z,99532.37
2023-03-05T13:11:52.830Z,99533.89
2023-03-05T13:14:32.865Z,99534.13
2023-03-05T13:17:04.873Z,99539.38
2023-03-05T13:19:36.166Z,99545.46
2023-03-05T13:22:13.039Z,99551.46
2023-03-05T13:24:43.471Z,99546.77
2023-03-05T13:27:25.972Z,99548.95
2023-03-05T13:29:56.383Z,99542.83
2023-03-05T13:32:31.112Z,99542.95
2023-03-05T13:35:02.772Z,99540.70
2023-03-05T13:37:36.701Z,99542.90
2023-03-05T13:40:20.271Z,99542.80
2023-03-05T13:42:51.142Z,99546.27
2023-03-05T13:45:28.253Z,99545.61
2023-03-05T13:48:01.367Z,99546.70
2023-03-05T13:50:33.607Z,99546.67
2023-03-05T13:53:19.481Z,99551.23
2023-03-05T13:55:51.054Z,99547.02
2023-03-05T13:58:53.386Z,99545.92
2023-03-05T14:01:33.045Z,99539.58
2023-03-05T14:04:08.623Z,99538.64
2023-03-05T14:06:47.505Z,99539.88
2023-03-05T14:09:23.482Z,99538.77
2023-03-05T14:12:00.782Z,99531.43
2023-03-05T14:14:35.312Z,99533.72
2023-03-05T14:17:44.409Z,99537.14
2023-03-05T14:20:34.504Z,99529.23
2023-03-05T14:23:34.144Z,99528.98
2023-03-05T14:26:24.232Z,99531.34
2023-03-05T14:28:56.902Z,99529.88
2023-03-05T14:31:29.329Z,99529.76
2023-03-05T14:34:03.074Z,99520.56
2023-03-05T14:36:34.867Z,99512.79
2023-03-05T14:39:05.783Z,99513.36
2023-03-05T14:41:40.049Z,99508.33
2023-03-05T14:44:16.048Z,99515.59
2023-03-05T14:46:49.782Z,99519.96
2023-03-05T14:49:20.242Z,99524.83
2023-03-05T14:51:50.717Z,99520.34
2023-03-05T14:54:25.021Z,99520.61
2023-03-05T14:56:55.898Z,99518.17
2023-03-05T14:59:26.713Z,99512.27
2023-03-05T15:01:57.660Z,99512.63
2023-03-05T15:04:28.202Z,99514.98
2023-03-05T15:06:58.617Z,99512.77
2023-03-05T15:09:29.729Z,99510.27
2023-03-05T15:16:19.065Z,99511.96
2023-03-05T15:18:50.462Z,99509.75
2023-03-05T15:21:20.919Z,99509.30
2023-03-05T15:23:51.388Z,99517.23
2023-03-05T15:26:22.034Z,99516.63
2023-03-05T15:28:52.498Z,99514.13
2023-03-05T15:31:23.098Z,99509.94
2023-03-05T15:33:53.739Z,99508.61
2023-03-05T15:36:24.210Z,99511.08
2023-03-05T15:38:54.757Z,99505.08
2023-03-05T15:41:25.236Z,99504.39
2023-03-05T15:43:55.662Z,99502.75
2023-03-05T15:46:26.278Z,99500.61
2023-03-05T15:48:56.878Z,99500.47
2023-03-05T15:51:27.505Z,99501.48
2023-03-05T15:53:58.032Z,99498.87
2023-03-05T15:56:28.550Z,99499.09
2023-03-05T15:58:59.023Z,99494.23
2023-03-05T16:01:29.681Z,99498.03
2023-03-05T16:04:00.177Z,99494.81
2023-03-05T16:06:31.381Z,99494.79
2023-03-05T16:09:04.922Z,99499.78
2023-03-05T16:11:37.360Z,99500.77
2023-03-05T16:14:08.382Z,99501.70
2023-03-05T16:16:39.546Z,99497.64
2023-03-05T16:19:13.622Z,99501.68
2023-03-05T16:21:44.410Z,99503.52
2023-03-05T16:24:15.253Z,99497.97
2023-03-05T16:26:45.877Z,99493.56
2023-03-05T16:29:16.436Z,99488.09
2023-03-05T16:31:47.754Z,99488.60
2023-03-05T16:34:18.870Z,99487.96
2023-03-05T16:36:52.932Z,99488.20
2023-03-05T16:39:24.171Z,99488.20
2023-03-05T16:41:54.825Z,99489.02
2023-03-05T16:44:25.535Z,99488.05
2023-03-05T16:46:56.569Z,99486.95
2023-03-05T16:49:27.287Z,99485.63
2023-03-05T16:51:59.430Z,99489.52
2023-03-05T16:54:32.056Z,99496.73
2023-03-05T16:57:02.863Z,99500.23
2023-03-05T16:59:33.424Z,99503.03
2023-03-05T17:02:04.120Z,99494.06
2023-03-05T17:04:34.872Z,99499.59
2023-03-05T17:07:05.558Z,99508.28
2023-03-05T17:09:36.763Z,99507.64
2023-03-05T17:12:07.861Z,99510.66
2023-03-05T17:14:38.345Z,99508.60
2023-03-05T17:17:08.800Z,99514.02
2023-03-05T17:19:39.609Z,99517.17
2023-03-05T17:22:12.926Z,99507.67
2023-03-05T17:24:43.825Z,99516.80
2023-03-05T17:27:14.332Z,99519.25
2023-03-05T17:29:45.866Z,99511.44
2023-03-05T17:32:16.400Z,99512.08
2023-03-05T17:35:38.277Z,99517.11
2023-03-05T17:38:11.021Z,99514.94
2023-03-05T17:40:41.469Z,99514.78
2023-03-05T17:51:33.456Z,99527.23
2023-03-05T17:54:04.314Z,99528.99
2023-03-05T17:56:34.839Z,99526.15
2023-03-05T17:59:05.280Z,99521.36
2023-03-05T18:01:36.627Z,99521.55
2023-03-05T18:04:07.690Z,99518.21
2023-03-05T18:06:38.244Z,99516.05
2023-03-05T18:09:08.706Z,99515.19
2023-03-05T18:11:39.181Z,99513.75
2023-03-05T18:14:09.793Z,99513.16
2023-03-05T18:16:40.381Z,99510.23
2023-03-05T18:19:10.954Z,99507.77
2023-03-05T18:21:42.284Z,99499.61
2023-03-05T18:24:13.044Z,99494.07
2023-03-05T18:26:43.448Z,99490.11
2023-03-05T18:29:13.846Z,99496.52
2023-03-05T18:31:44.284Z,99497.73
2023-03-05T18:34:14.755Z,99497.34
2023-03-05T18:36:45.269Z,99492.67
2023-03-05T18:39:16.628Z,99495.02
2023-03-05T18:41:47.781Z,99495.19
2023-03-05T18:44:20.453Z,99499.14
2023-03-05T18:46:51.310Z,99496.85
2023-03-05T18:49:21.781Z,99495.19
2023-03-05T18:51:52.344Z,99492.08
2023-03-05T18:54:23.012Z,99492.58
2023-03-05T18:56:53.535Z,99490.79
2023-03-05T18:59:23.966Z,99493.05
2023-03-05T19:01:54.465Z,99492.36
2023-03-05T19:04:25.003Z,99491.11
2023-03-05T19:06:55.453Z,99490.03
2023-03-05T19:09:42.117Z,99487.86
2023-03-05T19:12:12.588Z,99488.66
2023-03-05T19:14:42.997Z,99485.11
2023-03-05T19:17:13.642Z,99488.00
2023-03-05T19:19:44.105Z,99492.33
2023-03-05T19:22:14.800Z,99489.55
2023-03-05T19:24:45.286Z,99487.93
2023-03-05T19:27:16.001Z,99488.44
2023-03-05T19:29:46.677Z,99489.24
2023-03-05T19:32:18.771Z,99485.86
2023-03-05T19:34:49.685Z,99482.90
2023-03-05T19:37:20.184Z,99481.73
2023-03-05T19:39:50.942Z,99479.05
2023-03-05T19:42:21.488Z,99480.94
2023-03-05T19:44:51.977Z,99481.42
2023-03-05T19:47:22.498Z,99478.66
2023-03-05T19:49:53.003Z,99478.40
2023-03-05T19:52:23.590Z,99475.89
2023-03-05T19:54:54.079Z,99474.77
2023-03-05T19:57:24.574Z,99476.48
2023-03-05T19:59:55.631Z,99477.98
2023-03-05T20:02:26.087Z,99476.56
2023-03-05T20:04:58.473Z,99476.48
2023-03-05T20:07:29.113Z,99479.23
2023-03-05T20:10:00.116Z,99479.66
2023-03-05T20:12:30.651Z,99479.12
2023-03-05T20:15:01.253Z,99475.28
2023-03-05T20:17:31.703Z,99474.23
2023-03-05T20:20:02.373Z,99472.98
2023-03-05T20:22:32.829Z,99473.19
2023-03-05T20:25:03.257Z,99469.95
2023-03-05T20:27:34.481Z,99473.65
2023-03-05T20:30:05.710Z,99474.56
2023-03-05T20:32:36.409Z,99469.58
2023-03-05T20:35:08.400Z,99464.79
2023-03-05T20:37:49.418Z,99467.61
2023-03-05T20:40:20.902Z,99459.77
2023-03-05T20:42:52.342Z,99464.90
2023-03-05T20:45:22.993Z,99465.52
2023-03-05T20:47:53.681Z,99464.42
2023-03-05T20:50:24.458Z,99463.85
2023-03-05T20:52:54.909Z,99464.75
2023-03-05T20:55:28.548Z,99462.23
2023-03-05T20:57:59.510Z,99465.85
2023-03-05T21:00:30.319Z,99461.10
2023-03-05T21:03:00.931Z,99459.85
2023-03-05T21:05:32.244Z,99456.80
2023-03-05T21:08:04.312Z,99457.45
2023-03-05T21:15:16.261Z,99455.44
2023-03-05T21:17:46.937Z,99457.42
2023-03-05T21:20:20.336Z,99456.02
2023-03-05T21:22:50.874Z,99456.16
2023-03-05T21:25:23.113Z,99452.98
2023-03-05T21:27:58.363Z,99452.65
2023-03-05T21:30:34.309Z,99454.92
2023-03-05T21:33:06.922Z,99453.37
2023-03-05T21:35:38.604Z,99453.01
2023-03-05T21:38:10.690Z,99448.23
2023-03-05T21:40:45.515Z,99444.48
2023-03-05T21:43:18.529Z,99441.30
2023-03-05T21:45:51.061Z,99440.27
2023-03-05T21:48:20.561Z,99439.62
2023-03-05T21:50:52.490Z,99436.46
2023-03-05T21:57:43.426Z,99431.87
2023-03-05T22:00:18.135Z,99429.41
2023-03-05T22:02:48.582Z,99434.09
2023-03-05T22:05:19.416Z,99428.52
2023-03-05T22:07:49.878Z,99426.93
2023-03-05T22:10:22.061Z,99422.77
2023-03-05T22:12:56.678Z,99421.20
2023-03-05T22:15:27.662Z,99419.48
2023-03-05T22:17:58.295Z,99421.48
2023-03-05T22:20:28.841Z,99420.80
2023-03-05T22:22:59.348Z,99415.35
2023-03-05T22:25:30.227Z,99410.51
2023-03-05T22:28:00.733Z,99408.94
2023-03-05T22:30:32.181Z,99410.67
2023-03-05T22:33:03.381Z,99408.17
2023-03-05T22:35:34.078Z,99404.90
2023-03-05T22:38:04.594Z,99403.04
2023-03-05T22:40:36.971Z,99397.48
2023-03-05T22:43:07.598Z,99392.56
2023-03-05T22:45:38.312Z,99393.60
2023-03-05T22:48:10.422Z,99391.42
2023-03-05T22:50:42.420Z,99392.94
2023-03-05T22:53:13.550Z,99391.73
2023-03-05T22:55:44.454Z,99392.58
2023-03-05T22:58:14.872Z,99387.06
2023-03-05T23:00:45.303Z,99382.67
2023-03-05T23:03:15.777Z,99388.02
2023-03-05T23:05:46.315Z,99386.03
2023-03-05T23:08:16.781Z,99389.37
2023-03-05T23:10:47.217Z,99387.39
2023-03-05T23:13:17.860Z,99383.55
2023-03-05T23:15:48.302Z,99381.77
2023-03-05T23:18:18.837Z,99382.20
2023-03-05T23:20:49.305Z,99378.27
2023-03-05T23:23:19.756Z,99376.30
2023-03-05T23:25:52.969Z,99379.41
2023-03-05T23:28:23.406Z,99381.48
2023-03-05T23:30:53.869Z,99382.13
2023-03-05T23:33:25.915Z,99381.77
2023-03-05T23:35:59.291Z,99379.89
2023-03-05T23:38:31.462Z,99384.08
2023-03-05T23:41:03.615Z,99383.11
2023-03-05T23:43:34.054Z,99378.48
2023-03-05T23:46:04.751Z,99380.77
2023-03-05T23:48:35.247Z,99377.50
2023-03-05T23:51:11.160Z,99376.63
2023-03-05T23:53:41.582Z,99371.52
2023-03-05T23:56:13.336Z,99368.90
2023-03-05T23:58:43.836Z,99371.67
